Time;durP1;ratioP1;P1;durP2;ratioP2;P2;SDS_P1;SDS_P2;PMS_P1;PMS_P2;Temp;Humidity;BMP_temperature;BMP_pressure;BME280_temperature;BME280_humidity;BME280_pressure;Samples;Min_cycle;Max_cycle;Signal;HPM_P1;HPM_P2
2022/05/15 00:00:37;;;;;;;4.25;3.17;;;12.80;99.90;;;;;;5093300;28;20034;-78
2022/05/15 00:00:37;;;;;;;3.28;2.60;;;12.80;99.90;;;;;;5094353;28;20020;-78
2022/05/15 00:03:04;;;;;;;4.43;3.15;;;12.70;99.90;;;;;;5094241;28;20016;-78
2022/05/15 00:05:29;;;;;;;5.30;3.00;;;12.70;99.90;;;;;;5093008;28;20039;-78
2022/05/15 00:07:56;;;;;;;3.65;2.67;;;12.60;99.90;;;;;;5094457;28;20020;-78
2022/05/15 00:10:22;;;;;;;4.25;3.10;;;12.60;99.90;;;;;;5092852;28;20043;-78
2022/05/15 00:12:48;;;;;;;7.57;3.22;;;12.60;99.90;;;;;;5094253;28;20028;-78
2022/05/15 00:15:14;;;;;;;6.32;3.00;;;12.50;99.90;;;;;;5093956;28;20016;-78
2022/05/15 00:17:39;;;;;;;6.28;3.30;;;12.50;99.90;;;;;;5094239;28;20051;-78
2022/05/15 00:20:06;;;;;;;4.95;3.03;;;12.40;99.90;;;;;;5092750;28;20479;-78
2022/05/15 00:22:35;;;;;;;6.00;3.55;;;12.40;99.90;;;;;;5093785;28;20031;-78
2022/05/15 00:25:04;;;;;;;5.70;3.60;;;12.40;99.90;;;;;;5093849;28;20024;-78
2022/05/15 00:27:30;;;;;;;6.20;3.00;;;12.40;99.90;;;;;;5092571;28;20016;-78
2022/05/15 00:29:56;;;;;;;4.97;2.85;;;12.30;99.90;;;;;;5093668;28;20072;-78
2022/05/15 00:32:21;;;;;;;6.32;3.80;;;12.30;99.90;;;;;;5093955;28;20020;-78
2022/05/15 00:34:47;;;;;;;4.80;3.22;;;12.30;99.90;;;;;;5092572;28;20506;-78
2022/05/15 00:37:13;;;;;;;6.15;3.00;;;12.20;99.90;;;;;;5093653;28;20028;-78
2022/05/15 00:39:38;;;;;;;5.15;3.38;;;12.20;99.90;;;;;;5094262;28;20099;-78
2022/05/15 00:42:09;;;;;;;4.22;3.00;;;12.20;99.90;;;;;;5092357;28;20137;-78
2022/05/15 00:44:34;;;;;;;5.20;3.45;;;12.20;99.90;;;;;;5093687;28;20357;-78
2022/05/15 00:47:00;;;;;;;4.82;3.00;;;12.10;99.90;;;;;;5093636;28;20506;-78
2022/05/15 00:49:26;;;;;;;4.45;3.17;;;12.10;99.90;;;;;;5092333;28;20498;-78
2022/05/15 00:52:13;;;;;;;4.43;3.10;;;12.10;99.90;;;;;;5092517;28;20035;-78
2022/05/15 00:54:41;;;;;;;5.40;3.15;;;12.00;99.90;;;;;;5092347;28;20024;-78
2022/05/15 00:57:32;;;;;;;6.28;3.33;;;12.10;99.90;;;;;;5092253;28;20020;-78
2022/05/15 01:00:14;;;;;;;8.30;3.55;;;12.00;99.90;;;;;;5084889;28;20391;-78
2022/05/15 01:02:46;;;;;;;5.63;3.10;;;12.00;99.90;;;;;;5085890;28;20430;-79
2022/05/15 01:05:15;;;;;;;5.30;3.58;;;12.00;99.90;;;;;;5077929;28;20016;-79
2022/05/15 01:07:41;;;;;;;5.95;3.50;;;12.00;99.90;;;;;;5089311;28;20021;-80
2022/05/15 01:10:09;;;;;;;5.22;3.40;;;12.00;99.90;;;;;;5077966;28;20055;-80
2022/05/15 01:12:38;;;;;;;4.70;3.17;;;11.90;99.90;;;;;;5077868;28;20033;-80
2022/05/15 01:15:04;;;;;;;4.50;2.92;;;11.90;99.90;;;;;;5076023;28;20070;-80
2022/05/15 01:17:31;;;;;;;4.57;3.33;;;11.80;99.90;;;;;;5075903;28;20043;-80
2022/05/15 01:20:04;;;;;;;5.93;3.65;;;11.80;99.90;;;;;;5077385;28;20025;-80
2022/05/15 01:22:30;;;;;;;7.90;3.58;;;11.80;99.90;;;;;;5079543;28;20021;-80
2022/05/15 01:24:56;;;;;;;5.43;3.50;;;11.70;99.90;;;;;;5076505;28;20028;-80
2022/05/15 01:27:21;;;;;;;6.97;3.70;;;11.70;99.90;;;;;;5076221;28;20494;-80
2022/05/15 01:29:49;;;;;;;7.80;3.63;;;11.60;99.90;;;;;;5075856;28;20121;-80
2022/05/15 01:32:15;;;;;;;4.30;3.20;;;11.60;99.90;;;;;;5077204;28;20108;-80
2022/05/15 01:34:41;;;;;;;5.30;3.70;;;11.60;99.90;;;;;;5077040;28;20039;-80
2022/05/15 01:37:08;;;;;;;5.63;3.75;;;11.60;99.90;;;;;;5076600;28;20028;-80
2022/05/15 01:39:34;;;;;;;6.63;3.55;;;11.60;99.90;;;;;;5076734;28;20103;-80
2022/05/15 01:42:02;;;;;;;6.28;3.00;;;11.50;99.90;;;;;;5076603;28;20028;-80
2022/05/15 01:44:29;;;;;;;4.20;2.90;;;11.50;99.90;;;;;;5076754;28;20021;-80
2022/05/15 01:46:55;;;;;;;4.47;3.13;;;11.50;99.90;;;;;;5076584;28;20028;-80
2022/05/15 01:49:21;;;;;;;5.20;3.60;;;11.50;99.90;;;;;;5075243;28;20507;-80
2022/05/15 01:51:47;;;;;;;5.43;3.13;;;11.50;99.90;;;;;;5075221;28;20033;-80
2022/05/15 01:54:14;;;;;;;5.32;3.35;;;11.40;99.90;;;;;;5077187;28;20032;-80
2022/05/15 01:56:40;;;;;;;6.72;4.43;;;11.40;99.90;;;;;;5077338;28;20071;-80
2022/05/15 01:59:07;;;;;;;7.43;4.70;;;11.40;99.90;;;;;;5075087;28;20082;-80
2022/05/15 02:01:33;;;;;;;8.30;5.20;;;11.40;99.90;;;;;;5076934;28;20021;-80
2022/05/15 02:03:58;;;;;;;6.97;4.88;;;11.40;99.90;;;;;;5076727;28;20028;-80
2022/05/15 02:06:24;;;;;;;8.88;4.18;;;11.40;99.90;;;;;;5076514;28;20025;-80
2022/05/15 02:08:50;;;;;;;5.60;3.95;;;11.30;99.90;;;;;;5076191;28;20025;-80
2022/05/15 02:11:16;;;;;;;5.13;3.30;;;11.30;99.90;;;;;;5076757;28;20028;-80
2022/05/15 02:13:42;;;;;;;5.22;3.30;;;11.20;99.90;;;;;;5076086;28;20157;-80
2022/05/15 02:16:08;;;;;;;5.20;3.45;;;11.20;99.90;;;;;;5074805;28;20129;-80
2022/05/15 02:18:33;;;;;;;5.13;3.67;;;11.20;99.90;;;;;;5076302;28;20078;-80
2022/05/15 02:20:59;;;;;;;4.88;3.30;;;11.10;99.90;;;;;;5076279;28;20464;-80
2022/05/15 02:23:26;;;;;;;5.45;3.03;;;11.10;99.90;;;;;;5076727;28;20175;-80
2022/05/15 02:25:52;;;;;;;5.05;3.83;;;11.00;99.90;;;;;;5076211;28;20017;-80
2022/05/15 02:28:18;;;;;;;5.03;3.35;;;11.00;99.90;;;;;;5076045;28;20035;-80
2022/05/15 02:30:44;;;;;;;4.82;3.20;;;10.90;99.90;;;;;;5074645;28;20037;-80
2022/05/15 02:33:09;;;;;;;4.68;3.20;;;10.90;99.90;;;;;;5074617;28;20078;-80
2022/05/15 02:35:36;;;;;;;5.00;3.55;;;10.80;99.90;;;;;;5085948;28;20032;-80
2022/05/15 02:38:01;;;;;;;5.05;3.40;;;10.80;99.90;;;;;;5083143;28;20021;-80
2022/05/15 02:40:27;;;;;;;5.18;3.60;;;10.80;99.90;;;;;;5074644;28;20391;-80
2022/05/15 02:42:56;;;;;;;4.57;3.22;;;10.80;99.90;;;;;;5075914;28;20016;-80
2022/05/15 02:45:22;;;;;;;6.07;3.45;;;10.70;99.90;;;;;;5074468;28;20074;-80
2022/05/15 02:47:48;;;;;;;6.30;3.05;;;10.60;99.90;;;;;;5075821;28;20547;-80
2022/05/15 02:52:58;;;;;;;6.10;3.13;;;10.50;99.90;;;;;;5075679;28;20549;-80
2022/05/15 02:55:25;;;;;;;5.15;2.90;;;10.50;99.90;;;;;;5076053;28;20032;-80
2022/05/15 02:57:51;;;;;;;4.28;3.05;;;10.50;99.90;;;;;;5075943;28;20023;-80
2022/05/15 03:00:19;;;;;;;4.82;2.70;;;10.50;99.90;;;;;;5075371;28;20020;-80
2022/05/15 03:02:45;;;;;;;5.40;3.05;;;10.50;99.90;;;;;;5075498;28;20491;-80
2022/05/15 03:05:13;;;;;;;5.78;3.00;;;10.50;99.90;;;;;;5075957;28;20029;-80
2022/05/15 03:07:39;;;;;;;8.32;3.17;;;10.50;99.90;;;;;;5075611;28;20031;-80
2022/05/15 03:10:06;;;;;;;6.47;3.30;;;10.50;99.90;;;;;;5075427;28;20021;-80
2022/05/15 03:12:32;;;;;;;5.15;3.38;;;10.40;99.90;;;;;;5075293;28;20383;-80
2022/05/15 03:14:58;;;;;;;5.35;3.30;;;10.40;99.90;;;;;;5075401;28;20025;-80
2022/05/15 03:17:24;;;;;;;8.75;3.33;;;10.40;99.90;;;;;;5075653;28;20431;-80
2022/05/15 03:19:50;;;;;;;5.20;3.58;;;10.40;99.90;;;;;;5073885;28;20056;-80
2022/05/15 03:22:15;;;;;;;5.60;3.70;;;10.40;99.90;;;;;;5075409;28;20368;-80
2022/05/15 03:24:41;;;;;;;4.85;3.40;;;10.40;99.90;;;;;;5073911;28;20032;-80
2022/05/15 03:27:06;;;;;;;4.80;3.30;;;10.40;99.90;;;;;;5074226;28;20020;-80
2022/05/15 03:29:32;;;;;;;4.10;3.28;;;10.40;99.90;;;;;;5075148;28;20048;-80
2022/05/15 03:31:58;;;;;;;4.28;3.30;;;10.40;99.90;;;;;;5074968;28;20086;-80
2022/05/15 03:34:24;;;;;;;5.65;3.67;;;10.40;99.90;;;;;;5075043;28;20107;-80
2022/05/15 03:36:51;;;;;;;6.63;3.63;;;10.30;99.90;;;;;;5073764;28;20036;-80
2022/05/15 03:39:19;;;;;;;5.25;3.33;;;10.30;99.90;;;;;;5073517;28;20052;-80
2022/05/15 03:41:46;;;;;;;4.32;3.10;;;10.20;99.90;;;;;;5074765;28;20428;-80
2022/05/15 03:44:13;;;;;;;5.10;3.28;;;10.20;99.90;;;;;;5074903;28;20024;-80
2022/05/15 03:46:39;;;;;;;5.30;3.10;;;10.20;99.90;;;;;;5074841;28;20536;-80
2022/05/15 03:49:05;;;;;;;6.38;3.65;;;10.20;99.90;;;;;;5074431;28;20050;-80
2022/05/15 03:51:31;;;;;;;4.45;3.45;;;10.20;99.90;;;;;;5074601;28;20111;-80
2022/05/15 03:53:57;;;;;;;7.60;3.83;;;10.10;99.90;;;;;;5074539;28;20024;-80
2022/05/15 03:59:10;;;;;;;5.10;3.55;;;10.10;99.90;;;;;;5074255;28;20403;-79
2022/05/15 04:01:35;;;;;;;5.32;3.30;;;10.10;99.90;;;;;;5072884;28;20372;-79
2022/05/15 04:04:02;;;;;;;5.60;3.15;;;10.00;99.90;;;;;;5074104;28;20020;-79
2022/05/15 04:06:28;;;;;;;4.50;3.58;;;10.00;99.90;;;;;;5074195;28;20074;-79
2022/05/15 04:08:54;;;;;;;5.43;3.47;;;10.00;99.90;;;;;;5074292;28;20529;-79
2022/05/15 04:11:20;;;;;;;7.65;3.47;;;10.00;99.90;;;;;;5073892;28;20086;-79
2022/05/15 04:13:46;;;;;;;6.38;3.50;;;10.10;99.90;;;;;;5073790;28;20028;-79
2022/05/15 04:16:13;;;;;;;5.70;3.65;;;10.00;99.90;;;;;;5073853;28;20035;-79
2022/05/15 04:18:39;;;;;;;5.05;3.75;;;10.10;99.90;;;;;;5074158;28;20017;-79
2022/05/15 04:21:05;;;;;;;6.55;4.50;;;10.00;99.90;;;;;;5074099;28;20044;-79
2022/05/15 04:23:31;;;;;;;5.90;3.90;;;10.10;99.90;;;;;;5073745;28;20464;-79
2022/05/15 04:25:57;;;;;;;6.43;3.40;;;10.00;99.90;;;;;;5072474;28;20029;-79
2022/05/15 04:28:23;;;;;;;6.70;3.80;;;10.00;99.90;;;;;;5072436;28;20077;-79
2022/05/15 04:30:49;;;;;;;5.80;3.75;;;10.00;99.90;;;;;;5073879;28;20029;-79
2022/05/15 04:33:15;;;;;;;6.20;3.58;;;10.00;99.90;;;;;;5072477;28;20024;-79
2022/05/15 04:35:41;;;;;;;4.28;3.22;;;10.00;99.90;;;;;;5074255;28;20373;-79
2022/05/15 04:38:10;;;;;;;5.90;4.20;;;10.10;99.90;;;;;;5072411;28;20506;-79
2022/05/15 04:40:36;;;;;;;5.82;3.20;;;10.10;99.90;;;;;;5074163;28;20020;-79
2022/05/15 04:43:02;;;;;;;5.50;3.53;;;10.10;99.90;;;;;;5072589;28;20044;-79
2022/05/15 04:45:28;;;;;;;5.78;3.83;;;10.10;99.90;;;;;;5073662;28;20031;-79
2022/05/15 04:47:53;;;;;;;5.63;3.63;;;10.20;99.90;;;;;;5073951;28;20162;-79
2022/05/15 04:50:20;;;;;;;4.63;3.42;;;10.20;99.90;;;;;;5074049;28;20111;-79
2022/05/15 04:52:46;;;;;;;5.80;3.50;;;10.20;99.90;;;;;;5072245;28;20488;-79
2022/05/15 04:55:13;;;;;;;8.10;3.83;;;10.20;99.90;;;;;;5073485;28;20028;-79
2022/05/15 04:57:39;;;;;;;4.60;3.75;;;10.20;99.90;;;;;;5073771;28;20058;-79
2022/05/15 05:00:08;;;;;;;6.30;3.97;;;10.20;99.90;;;;;;5072024;28;20612;-79
2022/05/15 05:02:34;;;;;;;6.60;3.50;;;10.20;99.90;;;;;;5073347;28;20017;-79
2022/05/15 05:05:00;;;;;;;4.95;3.85;;;10.20;99.90;;;;;;5073679;28;20021;-79
2022/05/15 05:07:27;;;;;;;5.47;4.22;;;10.20;99.90;;;;;;5073638;28;20471;-79
2022/05/15 05:09:53;;;;;;;6.35;4.63;;;10.30;99.90;;;;;;5073304;28;20046;-79
2022/05/15 05:12:19;;;;;;;5.05;4.00;;;10.30;99.90;;;;;;5073276;28;20047;-79
2022/05/15 05:14:44;;;;;;;5.95;4.10;;;10.30;99.90;;;;;;5073250;28;20041;-79
2022/05/15 05:17:10;;;;;;;6.07;4.60;;;10.40;99.90;;;;;;5073213;28;20037;-79
2022/05/15 05:19:36;;;;;;;5.80;4.50;;;10.40;99.90;;;;;;5072038;28;20050;-79
2022/05/15 05:22:02;;;;;;;7.70;4.85;;;10.40;99.90;;;;;;5073265;28;20516;-79
2022/05/15 05:24:27;;;;;;;6.53;4.60;;;10.50;99.90;;;;;;5074087;28;20032;-79
2022/05/15 05:26:53;;;;;;;6.07;4.35;;;10.50;99.90;;;;;;5073495;28;20024;-79
2022/05/15 05:29:19;;;;;;;8.15;5.05;;;10.60;99.90;;;;;;5073367;28;20039;-79
2022/05/15 05:31:45;;;;;;;7.32;4.88;;;10.60;99.90;;;;;;5072085;28;20044;-79
2022/05/15 05:34:10;;;;;;;11.35;5.80;;;10.60;99.90;;;;;;5073572;28;20077;-79
2022/05/15 05:36:36;;;;;;;5.55;4.75;;;10.70;99.90;;;;;;5073377;28;20112;-79
2022/05/15 05:39:02;;;;;;;6.43;4.65;;;10.70;99.90;;;;;;5073610;28;20024;-79
2022/05/15 05:41:29;;;;;;;6.38;5.13;;;10.70;99.90;;;;;;5073393;28;20508;-79
2022/05/15 05:43:54;;;;;;;6.55;5.28;;;10.80;99.90;;;;;;5108878;23;20054;-72
2022/05/15 05:46:21;;;;;;;7.88;5.15;;;10.80;99.90;;;;;;5113633;28;20107;-72
2022/05/15 05:48:48;;;;;;;8.68;5.78;;;10.90;99.90;;;;;;5113519;28;20023;-73
2022/05/15 05:51:14;;;;;;;9.18;5.75;;;11.00;99.90;;;;;;5116055;28;20031;-73
2022/05/15 05:53:41;;;;;;;7.18;5.93;;;11.00;99.90;;;;;;5116903;28;20107;-73
2022/05/15 05:56:06;;;;;;;6.75;5.22;;;11.10;99.90;;;;;;5117237;28;20028;-72
2022/05/15 05:58:32;;;;;;;8.55;6.07;;;11.20;99.90;;;;;;5116938;28;20015;-72
2022/05/15 06:00:58;;;;;;;8.70;6.43;;;11.30;99.90;;;;;;5117197;28;20378;-72
2022/05/15 06:06:07;;;;;;;10.80;5.75;;;11.50;99.90;;;;;;5117107;28;20076;-72
2022/05/15 06:08:33;;;;;;;10.63;6.35;;;11.60;99.90;;;;;;5116751;28;20031;-73
2022/05/15 06:10:59;;;;;;;9.13;7.25;;;11.70;99.90;;;;;;5116700;28;20483;-73
2022/05/15 06:13:25;;;;;;;10.10;7.32;;;11.80;99.90;;;;;;5116638;28;20386;-73
2022/05/15 06:15:52;;;;;;;10.00;6.78;;;11.90;99.90;;;;;;5116478;28;20031;-72
2022/05/15 06:18:18;;;;;;;13.32;7.78;;;12.00;99.90;;;;;;5116565;28;20039;-72
2022/05/15 06:20:44;;;;;;;11.07;8.50;;;12.10;99.90;;;;;;5116741;28;20027;-73
2022/05/15 06:23:09;;;;;;;11.27;8.63;;;12.20;99.90;;;;;;5116472;28;20032;-73
2022/05/15 06:25:35;;;;;;;14.85;9.30;;;12.30;99.90;;;;;;5116308;28;20077;-73
2022/05/15 06:28:01;;;;;;;14.95;10.38;;;12.40;99.90;;;;;;5116656;28;20490;-72
2022/05/15 06:30:27;;;;;;;12.65;9.35;;;12.50;99.90;;;;;;5116311;28;20032;-72
2022/05/15 06:32:53;;;;;;;14.18;9.48;;;12.60;99.90;;;;;;5116261;28;20108;-73
2022/05/15 06:35:18;;;;;;;13.68;9.73;;;12.80;99.90;;;;;;5097840;28;20100;-72
2022/05/15 06:37:44;;;;;;;12.82;10.43;;;12.90;99.90;;;;;;5116427;28;20080;-72
2022/05/15 06:40:13;;;;;;;11.93;8.80;;;13.00;99.90;;;;;;5116203;28;20030;-72
2022/05/15 06:42:40;;;;;;;11.82;9.63;;;13.10;99.90;;;;;;5116190;28;20442;-73
2022/05/15 06:45:07;;;;;;;14.43;11.02;;;13.20;99.90;;;;;;5116308;28;20023;-72
2022/05/15 06:47:33;;;;;;;13.98;10.00;;;13.30;99.90;;;;;;5116036;28;20034;-72
2022/05/15 06:50:00;;;;;;;15.10;11.80;;;13.40;99.90;;;;;;5116338;28;20055;-72
2022/05/15 06:52:26;;;;;;;15.32;11.10;;;13.60;99.90;;;;;;5115971;28;20016;-72
2022/05/15 06:54:52;;;;;;;17.77;12.10;;;13.70;99.90;;;;;;5115921;28;20028;-71
2022/05/15 06:57:30;;;;;;;19.55;15.57;;;13.80;99.90;;;;;;5115749;28;20099;-72
2022/05/15 07:00:01;;;;;;;17.88;14.55;;;14.00;99.90;;;;;;5116323;28;20042;-72
2022/05/15 07:02:29;;;;;;;18.88;15.05;;;14.10;99.90;;;;;;5115021;28;20047;-72
2022/05/15 07:04:55;;;;;;;19.33;15.10;;;14.30;99.90;;;;;;5115641;28;20027;-72
2022/05/15 07:07:21;;;;;;;17.45;13.68;;;14.50;99.90;;;;;;5115620;28;20023;-72
2022/05/15 07:09:47;;;;;;;17.10;12.95;;;14.60;99.90;;;;;;5115644;28;20033;-72
2022/05/15 07:12:13;;;;;;;15.10;11.15;;;14.70;99.90;;;;;;5115649;28;20028;-72
2022/05/15 07:14:39;;;;;;;13.50;9.85;;;14.80;99.90;;;;;;5115444;28;20027;-72
2022/05/15 07:17:05;;;;;;;11.60;9.07;;;15.00;99.90;;;;;;5115592;28;20067;-72
2022/05/15 07:19:31;;;;;;;11.15;9.38;;;15.10;99.90;;;;;;5115322;28;20103;-71
2022/05/15 07:21:57;;;;;;;10.30;8.45;;;15.20;99.90;;;;;;5115359;28;20451;-72
2022/05/15 07:24:22;;;;;;;11.10;8.55;;;15.30;99.90;;;;;;5115277;28;20019;-73
2022/05/15 07:26:49;;;;;;;10.55;7.70;;;15.50;99.90;;;;;;5096888;28;20441;-73
2022/05/15 07:29:15;;;;;;;10.18;7.75;;;15.60;99.90;;;;;;5115229;28;20469;-72
2022/05/15 07:31:42;;;;;;;11.50;9.00;;;15.80;99.90;;;;;;5115128;28;20024;-72
2022/05/15 07:34:08;;;;;;;10.25;8.93;;;15.90;99.90;;;;;;5115047;28;20467;-71
2022/05/15 07:36:34;;;;;;;12.05;8.25;;;16.10;99.90;;;;;;5114966;28;20066;-72
2022/05/15 07:39:00;;;;;;;10.25;8.10;;;16.20;99.90;;;;;;5115070;28;20476;-72
2022/05/15 07:41:25;;;;;;;10.98;8.65;;;16.30;99.90;;;;;;5114950;28;20061;-72
2022/05/15 07:43:51;;;;;;;14.23;11.48;;;16.50;99.90;;;;;;5114754;28;20435;-72
2022/05/15 07:46:17;;;;;;;18.77;14.45;;;16.60;99.90;;;;;;5115113;28;20092;-72
2022/05/15 07:48:43;;;;;;;12.98;10.55;;;16.70;99.90;;;;;;5114855;28;20493;-72
2022/05/15 07:51:09;;;;;;;13.98;10.52;;;16.90;99.90;;;;;;5114774;28;20028;-71
2022/05/15 07:53:36;;;;;;;11.63;9.85;;;17.00;99.90;;;;;;5114648;28;20030;-71
2022/05/15 07:56:03;;;;;;;12.43;9.15;;;17.10;99.90;;;;;;5114631;28;20433;-71
2022/05/15 07:58:31;;;;;;;8.45;7.50;;;17.30;99.90;;;;;;5114718;28;20035;-71
2022/05/15 08:00:57;;;;;;;9.93;7.57;;;17.50;99.90;;;;;;5114583;28;20020;-71
2022/05/15 08:03:23;;;;;;;8.73;7.40;;;17.60;99.90;;;;;;5115189;28;20026;-71
2022/05/15 08:08:33;;;;;;;8.85;6.25;;;17.90;99.90;;;;;;5115054;28;20507;-71
2022/05/15 08:11:00;;;;;;;9.82;7.20;;;18.00;99.90;;;;;;5114433;28;20181;-71
2022/05/15 08:13:28;;;;;;;8.85;6.70;;;18.10;99.90;;;;;;5114145;28;20051;-71
2022/05/15 08:15:54;;;;;;;7.72;5.97;;;18.30;99.90;;;;;;5114990;28;20058;-71
2022/05/15 08:23:56;;;;;;;8.52;6.45;;;18.80;99.90;;;;;;5114668;28;20498;-71
2022/05/15 08:26:22;;;;;;;7.93;5.55;;;18.90;99.90;;;;;;5114401;28;20024;-71
2022/05/15 08:28:49;;;;;;;11.13;6.32;;;19.10;99.90;;;;;;5114736;28;20027;-71
2022/05/15 08:31:17;;;;;;;7.65;4.40;;;19.20;99.90;;;;;;5095851;28;20083;-71
2022/05/15 08:33:43;;;;;;;7.38;4.50;;;19.30;99.90;;;;;;5114110;28;20115;-70
2022/05/15 08:36:09;;;;;;;5.95;4.60;;;19.40;99.90;;;;;;5114394;28;20035;-71
2022/05/15 08:38:36;;;;;;;5.50;3.95;;;19.50;99.90;;;;;;5096062;28;20020;-71
2022/05/15 08:41:18;;;;;;;7.90;4.45;;;19.70;99.90;;;;;;5113979;28;20466;-71
2022/05/15 08:44:14;;;;;;;6.57;3.78;;;19.80;99.50;;;;;;5114170;28;20414;-71
2022/05/15 08:46:49;;;;;;;8.43;4.10;;;19.90;98.50;;;;;;5100755;28;20031;-71
2022/05/15 08:49:57;;;;;;;6.00;4.80;;;20.10;98.30;;;;;;5113917;28;20080;-71
2022/05/15 08:52:44;;;;;;;8.57;5.05;;;20.20;98.40;;;;;;5011961;28;20101;-71
2022/05/15 08:55:19;;;;;;;5.10;4.20;;;20.40;97.40;;;;;;4995222;28;20030;-71
2022/05/15 08:58:00;;;;;;;8.02;6.30;;;20.40;96.20;;;;;;5083478;28;20035;-71
2022/05/15 09:00:50;;;;;;;;;;;20.50;95.50;;;;;;5114643;28;20380;-71
2022/05/15 09:03:24;;;;;;;6.15;3.65;;;20.70;94.60;;;;;;5114228;28;20363;-71
2022/05/15 09:05:55;;;;;;;5.55;3.67;;;20.70;94.70;;;;;;5114259;28;20027;-71
2022/05/15 09:08:47;;;;;;;4.40;2.80;;;20.90;94.30;;;;;;5113831;28;20091;-71
2022/05/15 09:11:24;;;;;;;6.05;3.38;;;21.00;92.60;;;;;;5114020;28;20114;-71
2022/05/15 09:14:04;;;;;;;9.25;4.95;;;21.10;92.80;;;;;;5114278;28;20028;-71
2022/05/15 09:16:30;;;;;;;9.05;3.45;;;21.30;92.10;;;;;;5095578;28;20027;-71
2022/05/15 09:19:06;;;;;;;5.57;3.35;;;21.30;91.00;;;;;;5114238;28;20032;-71
2022/05/15 09:21:32;;;;;;;7.05;2.97;;;21.50;91.60;;;;;;5113941;28;20024;-71
2022/05/15 09:24:06;;;;;;;6.45;3.00;;;21.50;90.20;;;;;;5113557;28;20131;-71
2022/05/15 09:26:46;;;;;;;4.43;2.85;;;21.60;88.80;;;;;;5117062;28;20099;-70
2022/05/15 09:29:27;;;;;;;4.72;3.42;;;21.70;90.20;;;;;;5117720;28;20099;-71
2022/05/15 09:31:53;;;;;;;4.05;2.75;;;21.80;90.80;;;;;;5117930;28;20031;-71
2022/05/15 09:34:36;;;;;;;4.55;2.50;;;22.00;90.20;;;;;;5117576;28;20024;-70
2022/05/15 09:39:50;;;;;;;4.75;2.60;;;22.40;87.10;;;;;;5118002;28;20429;-71
2022/05/15 09:45:25;;;;;;;6.68;3.13;;;22.50;83.30;;;;;;5117353;28;20031;-70
2022/05/15 09:47:51;;;;;;;4.18;2.95;;;22.70;85.60;;;;;;5098952;28;20031;-70
2022/05/15 09:50:37;;;;;;;6.10;3.05;;;22.80;86.90;;;;;;5117354;28;20028;-70
2022/05/15 09:53:14;;;;;;;4.85;3.00;;;22.90;86.50;;;;;;5117089;28;20020;-70
2022/05/15 09:55:40;;;;;;;7.13;4.30;;;22.90;82.80;;;;;;5116924;28;20031;-70
2022/05/15 09:58:17;;;;;;;3.92;2.78;;;23.10;80.30;;;;;;5116945;28;20012;-71
2022/05/15 10:00:43;;;;;;;14.02;9.88;;;23.20;78.60;;;;;;5117244;28;20026;-70
2022/05/15 10:03:25;;;;;;;7.45;3.97;;;23.30;79.40;;;;;;5117226;28;20015;-70
2022/05/15 10:06:00;;;;;;;15.13;9.07;;;23.40;76.00;;;;;;5117034;28;20028;-70
2022/05/15 10:08:27;;;;;;;16.63;9.23;;;23.50;76.80;;;;;;5117317;28;20020;-70
2022/05/15 10:11:15;;;;;;;6.30;2.90;;;23.60;75.80;;;;;;5117126;28;20027;-69
2022/05/15 10:13:52;;;;;;;4.10;2.63;;;23.60;71.40;;;;;;5098400;28;20028;-69
2022/05/15 10:16:21;;;;;;;4.40;2.80;;;23.60;73.30;;;;;;5116905;28;20080;-69
2022/05/15 10:18:58;;;;;;;5.55;2.83;;;23.80;69.80;;;;;;5117119;28;20027;-70
2022/05/15 10:21:34;;;;;;;3.72;2.22;;;23.80;71.50;;;;;;5117151;28;20474;-70
2022/05/15 10:24:06;;;;;;;4.47;2.28;;;24.00;68.60;;;;;;5116747;28;20152;-70
2022/05/15 10:26:59;;;;;;;5.13;2.70;;;24.10;68.90;;;;;;5116450;28;20087;-69
2022/05/15 10:29:29;;;;;;;4.80;2.63;;;24.20;67.90;;;;;;5085709;28;20169;-69
2022/05/15 10:32:01;;;;;;;5.32;2.60;;;24.30;66.60;;;;;;5116642;28;20053;-69
2022/05/15 10:34:29;;;;;;;3.75;2.53;;;24.40;67.40;;;;;;5116236;28;20479;-70
2022/05/15 10:37:12;;;;;;;5.07;2.42;;;24.60;68.30;;;;;;5116390;28;20412;-70
2022/05/15 10:39:53;;;;;;;8.68;2.85;;;24.70;66.10;;;;;;5116525;28;20374;-70
2022/05/15 10:42:39;;;;;;;5.03;2.70;;;24.80;66.30;;;;;;5116075;28;20022;-69
2022/05/15 10:45:31;;;;;;;5.75;2.42;;;24.90;68.60;;;;;;5116442;28;20424;-69
2022/05/15 10:48:18;;;;;;;4.80;2.30;;;24.90;66.60;;;;;;5116078;28;20020;-70
2022/05/15 10:51:16;;;;;;;7.05;2.75;;;25.00;66.60;;;;;;5097653;28;20020;-69
2022/05/15 10:59:40;;;;;;;5.57;2.50;;;25.20;64.20;;;;;;5116531;28;20497;-69
2022/05/15 11:02:47;;;;;;;4.85;2.90;;;25.20;62.90;;;;;;5116054;28;20020;-70
2022/05/15 11:05:29;;;;;;;4.00;2.60;;;25.30;63.10;;;;;;5066693;28;20032;-70
2022/05/15 11:08:29;;;;;;;6.50;2.78;;;25.40;63.70;;;;;;5115870;28;20027;-69
2022/05/15 11:11:06;;;;;;;4.15;2.40;;;25.40;62.70;;;;;;5097401;28;20590;-69
2022/05/15 11:13:50;;;;;;;5.20;2.50;;;25.50;63.80;;;;;;5115694;28;20360;-69
2022/05/15 11:16:22;;;;;;;4.10;2.65;;;25.50;66.80;;;;;;5115401;28;20386;-69
2022/05/15 11:19:29;;;;;;;6.90;2.70;;;25.60;65.80;;;;;;5115408;28;20024;-69
2022/05/15 11:22:06;;;;;;;6.38;2.45;;;25.70;65.30;;;;;;5115295;28;20023;-69
2022/05/15 11:24:38;;;;;;;3.33;2.15;;;25.80;65.70;;;;;;5096983;28;20431;-69
2022/05/15 11:27:21;;;;;;;5.45;2.58;;;25.80;64.40;;;;;;5115541;28;20072;-69
2022/05/15 11:29:51;;;;;;;6.93;2.67;;;25.90;64.80;;;;;;5096939;28;20110;-69
2022/05/15 11:32:33;;;;;;;4.43;2.80;;;26.00;64.50;;;;;;5115221;28;20487;-69
2022/05/15 11:35:05;;;;;;;4.65;2.55;;;25.90;65.00;;;;;;5115070;28;20494;-68
2022/05/15 11:37:37;;;;;;;3.53;2.30;;;25.90;63.10;;;;;;5096694;28;20136;-68
2022/05/15 11:40:04;;;;;;;3.92;2.42;;;25.90;61.90;;;;;;5115025;28;20498;-68
2022/05/15 11:42:30;;;;;;;5.65;2.72;;;25.90;63.80;;;;;;5114831;28;20036;-69
2022/05/15 11:45:28;;;;;;;8.85;2.88;;;26.00;62.80;;;;;;5114930;28;20016;-69
2022/05/15 11:48:23;;;;;;;5.65;2.70;;;26.00;61.50;;;;;;5114170;28;20019;-68
2022/05/15 11:51:02;;;;;;;5.72;2.53;;;26.20;65.40;;;;;;5114787;28;20028;-69
2022/05/15 11:53:30;;;;;;;4.03;2.53;;;26.20;60.30;;;;;;5114981;28;20490;-68
2022/05/15 11:55:56;;;;;;;3.55;2.17;;;26.20;59.70;;;;;;5114869;28;20387;-68
2022/05/15 11:58:36;;;;;;;6.55;2.60;;;26.20;61.50;;;;;;5114649;28;20467;-69
2022/05/15 12:01:27;;;;;;;2.97;2.40;;;26.40;60.40;;;;;;5097466;28;20034;-68
2022/05/15 12:03:56;;;;;;;3.63;2.40;;;26.50;60.10;;;;;;5096417;28;20032;-68
2022/05/15 12:06:27;;;;;;;5.82;2.70;;;26.50;61.20;;;;;;5114444;28;20028;-68
2022/05/15 12:09:16;;;;;;;4.43;2.67;;;26.40;59.60;;;;;;5114760;28;20072;-68
2022/05/15 12:11:50;;;;;;;4.80;2.38;;;26.40;59.60;;;;;;5114256;28;20103;-67
2022/05/15 12:14:21;;;;;;;5.57;2.20;;;26.50;59.60;;;;;;5114766;28;20030;-68
2022/05/15 12:17:25;;;;;;;6.03;2.60;;;26.60;57.50;;;;;;5114504;28;20490;-68
2022/05/15 12:19:59;;;;;;;5.25;2.75;;;26.70;59.20;;;;;;5114966;28;20348;-69
2022/05/15 12:22:25;;;;;;;4.28;2.20;;;26.70;58.10;;;;;;5114586;28;20027;-68
2022/05/15 12:24:50;;;;;;;3.78;2.70;;;26.70;56.70;;;;;;5114141;28;20023;-68
2022/05/15 12:27:28;;;;;;;3.63;2.45;;;26.70;57.50;;;;;;5114186;28;20031;-69
2022/05/15 12:30:17;;;;;;;11.00;2.70;;;26.70;59.70;;;;;;5101391;28;20383;-69
2022/05/15 12:32:48;;;;;;;3.58;2.20;;;26.70;59.80;;;;;;5108127;28;20023;-69
2022/05/15 12:35:22;;;;;;;8.88;2.55;;;26.80;59.00;;;;;;5112438;28;20028;-69
2022/05/15 12:38:01;;;;;;;4.32;2.08;;;26.90;58.20;;;;;;5113515;28;20024;-68
2022/05/15 12:40:31;;;;;;;4.07;1.98;;;27.00;56.80;;;;;;5113390;28;20019;-69
2022/05/15 12:42:58;;;;;;;6.30;2.30;;;27.00;51.80;;;;;;5094975;28;20068;-69
2022/05/15 12:45:24;;;;;;;4.35;2.33;;;27.10;54.90;;;;;;5113176;28;20020;-68
2022/05/15 12:48:09;;;;;;;5.45;2.20;;;27.10;57.10;;;;;;5112605;28;20027;-69
2022/05/15 12:51:06;;;;;;;4.20;2.30;;;27.10;57.00;;;;;;5113092;28;20019;-69
2022/05/15 12:53:52;;;;;;;6.43;2.50;;;27.00;55.30;;;;;;5094940;28;20031;-69
2022/05/15 12:56:30;;;;;;;5.13;2.50;;;27.00;57.90;;;;;;5113083;28;20020;-68
2022/05/15 12:58:58;;;;;;;3.90;2.00;;;27.10;57.20;;;;;;5113279;28;20026;-68
2022/05/15 13:01:30;;;;;;;4.93;2.80;;;27.20;57.10;;;;;;5116658;28;20026;-68
2022/05/15 13:03:59;;;;;;;4.30;2.20;;;27.20;58.20;;;;;;5117496;28;20020;-68
2022/05/15 13:06:37;;;;;;;4.75;2.47;;;27.10;57.90;;;;;;5117090;28;20020;-68
2022/05/15 13:09:09;;;;;;;4.35;2.60;;;27.20;57.10;;;;;;5099038;28;20475;-68
2022/05/15 13:11:38;;;;;;;;;;;27.30;57.70;;;;;;5097835;28;20032;-68
2022/05/15 13:14:04;;;;;;;;;;;27.30;58.30;;;;;;5115870;28;20324;-68
2022/05/15 13:16:29;;;;;;;;;;;27.40;60.10;;;;;;5117120;28;20052;-68
2022/05/15 13:18:56;;;;;;;;;;;27.60;58.40;;;;;;5116625;28;19994;-67
2022/05/15 13:21:27;;;;;;;;;;;27.70;56.10;;;;;;5115338;28;19926;-68
2022/05/15 13:23:53;;;;;;;;;;;27.60;57.60;;;;;;5115426;28;19912;-68
2022/05/15 13:26:39;;;;;;;;;;;27.70;57.00;;;;;;5097429;28;19986;-67